createdAt,value
2022-08-09T00:00:00.202Z,4.00
2022-08-09T00:02:28.792Z,4.97
2022-08-09T00:05:03.725Z,5.20
2022-08-09T00:07:44.628Z,3.85
2022-08-09T00:10:18.212Z,4.47
2022-08-09T00:12:52.552Z,4.38
2022-08-09T00:15:26.635Z,5.13
2022-08-09T00:18:11.547Z,5.13
2022-08-09T00:20:42.503Z,5.75
2022-08-09T00:23:58.352Z,5.03
2022-08-09T00:26:05.084Z,4.82
2022-08-09T00:28:34.576Z,3.95
2022-08-09T00:31:30.580Z,4.82
2022-08-09T00:33:51.819Z,3.97
2022-08-09T00:36:19.967Z,4.35
2022-08-09T00:38:46.896Z,5.85
2022-08-09T00:44:14.813Z,6.38
2022-08-09T00:44:20.129Z,4.25
2022-08-09T00:46:57.320Z,4.30
2022-08-09T00:49:32.031Z,5.45
2022-08-09T00:52:05.408Z,3.85
2022-08-09T00:54:43.146Z,3.47
2022-08-09T00:57:12.110Z,4.95
2022-08-09T00:59:47.194Z,4.03
2022-08-09T01:02:22.313Z,5.28
2022-08-09T01:04:50.262Z,5.22
2022-08-09T01:07:38.030Z,4.57
2022-08-09T01:10:25.831Z,4.05
2022-08-09T01:13:03.591Z,3.97
2022-08-09T01:15:40.943Z,4.05
2022-08-09T01:18:14.297Z,4.45
2022-08-09T01:20:47.229Z,4.38
2022-08-09T01:24:02.149Z,4.25
2022-08-09T01:26:31.027Z,4.32
2022-08-09T01:29:00.767Z,5.32
2022-08-09T01:32:31.361Z,4.75
2022-08-09T01:34:19.864Z,4.72
2022-08-09T01:36:48.952Z,4.28
2022-08-09T01:39:17.748Z,4.40
2022-08-09T01:41:53.505Z,4.93
2022-08-09T01:44:29.168Z,5.53
2022-08-09T01:46:59.311Z,3.95
2022-08-09T01:49:31.995Z,5.55
2022-08-09T01:52:10.871Z,5.05
2022-08-09T01:54:50.826Z,5.55
2022-08-09T01:57:27.283Z,4.18
2022-08-09T02:00:09.120Z,6.00
2022-08-09T02:02:49.550Z,4.22
2022-08-09T02:05:37.987Z,4.10
2022-08-09T02:08:39.387Z,4.72
2022-08-09T02:11:13.406Z,5.22
2022-08-09T02:14:02.075Z,4.63
2022-08-09T02:17:00.023Z,5.68
2022-08-09T02:19:22.827Z,4.80
2022-08-09T02:21:55.903Z,3.88
2022-08-09T02:24:29.731Z,4.60
2022-08-09T02:27:01.878Z,4.47
2022-08-09T02:29:33.870Z,4.22
2022-08-09T02:32:03.900Z,4.85
2022-08-09T02:34:40.140Z,4.60
2022-08-09T02:37:16.340Z,3.63
2022-08-09T02:39:55.318Z,5.50
2022-08-09T02:42:38.521Z,4.32
2022-08-09T02:45:13.400Z,4.88
2022-08-09T02:47:57.442Z,3.75
2022-08-09T02:51:02.801Z,6.88
2022-08-09T02:53:37.058Z,4.03
2022-08-09T02:56:06.219Z,5.45
2022-08-09T02:58:36.433Z,5.75
2022-08-09T03:01:08.291Z,4.38
2022-08-09T03:04:16.962Z,6.03
2022-08-09T03:06:27.871Z,4.07
2022-08-09T03:08:57.775Z,5.32
2022-08-09T03:11:29.712Z,4.38
2022-08-09T03:14:13.659Z,5.57
2022-08-09T03:16:47.734Z,4.55
2022-08-09T03:19:59.653Z,3.80
2022-08-09T03:22:11.764Z,5.97
2022-08-09T03:24:52.220Z,4.63
2022-08-09T03:27:21.352Z,3.90
2022-08-09T03:29:57.073Z,6.22
2022-08-09T03:32:26.099Z,5.25
2022-08-09T03:34:53.862Z,4.38
2022-08-09T03:37:56.620Z,4.25
2022-08-09T03:40:08.823Z,6.13
2022-08-09T03:42:39.853Z,5.38
2022-08-09T03:45:10.923Z,5.53
2022-08-09T03:47:41.943Z,5.90
2022-08-09T03:50:14.316Z,3.80
2022-08-09T03:52:57.980Z,6.43
2022-08-09T03:55:27.110Z,4.70
2022-08-09T03:58:03.202Z,5.43
2022-08-09T04:00:33.266Z,7.78
2022-08-09T04:03:01.043Z,4.70
2022-08-09T04:05:28.253Z,4.40
2022-08-09T04:07:57.202Z,4.55
2022-08-09T04:10:29.368Z,4.72
2022-08-09T04:12:58.142Z,4.00
2022-08-09T04:15:38.730Z,4.25
2022-08-09T04:18:16.473Z,4.97
2022-08-09T04:20:46.132Z,3.85
2022-08-09T04:23:16.897Z,4.38
2022-08-09T04:25:49.623Z,4.65
2022-08-09T04:28:33.978Z,4.68
2022-08-09T04:31:05.887Z,4.90
2022-08-09T04:33:52.182Z,3.72
2022-08-09T04:36:24.986Z,4.70
2022-08-09T04:38:52.915Z,4.70
2022-08-09T04:41:23.592Z,5.60
2022-08-09T04:44:05.828Z,3.95
2022-08-09T04:46:56.924Z,4.15
2022-08-09T04:49:22.329Z,4.60
2022-08-09T04:52:09.689Z,3.92
2022-08-09T04:54:37.052Z,4.13
2022-08-09T04:57:04.242Z,4.28
2022-08-09T04:59:31.545Z,4.07
2022-08-09T05:01:58.714Z,6.43
2022-08-09T05:04:31.518Z,7.38
2022-08-09T05:06:58.700Z,4.28
2022-08-09T05:09:42.255Z,4.65
2022-08-09T05:12:12.690Z,4.78
2022-08-09T05:14:41.238Z,4.65
2022-08-09T05:18:36.517Z,3.95
2022-08-09T05:19:56.973Z,4.20
2022-08-09T05:23:50.955Z,5.53
2022-08-09T05:25:11.020Z,5.68
2022-08-09T05:27:44.381Z,5.80
2022-08-09T05:30:13.109Z,5.13
2022-08-09T05:32:41.964Z,5.88
2022-08-09T05:35:11.358Z,6.20
2022-08-09T05:37:47.536Z,6.10
2022-08-09T05:40:15.384Z,7.50
2022-08-09T05:42:42.873Z,7.85
2022-08-09T05:45:10.617Z,4.85
2022-08-09T05:47:52.225Z,5.97
2022-08-09T05:50:36.238Z,5.38
2022-08-09T05:53:21.765Z,6.40
2022-08-09T05:55:58.287Z,5.43
2022-08-09T05:58:24.963Z,7.22
2022-08-09T06:00:53.423Z,6.43
2022-08-09T06:03:20.684Z,4.93
2022-08-09T06:05:54.782Z,7.90
2022-08-09T06:08:31.022Z,9.05
2022-08-09T06:10:59.225Z,7.35
2022-08-09T06:13:28.640Z,6.68
2022-08-09T06:16:00.512Z,8.98
2022-08-09T06:18:28.411Z,7.93
2022-08-09T06:20:57.808Z,8.55
2022-08-09T06:23:55.655Z,9.38
2022-08-09T06:26:15.276Z,8.52
2022-08-09T06:29:00.591Z,8.93
2022-08-09T06:34:18.718Z,11.18
2022-08-09T06:36:45.932Z,8.52
2022-08-09T06:39:13.610Z,10.02
2022-08-09T06:42:08.941Z,10.35
2022-08-09T06:44:28.140Z,9.98
2022-08-09T06:46:54.952Z,8.20
2022-08-09T06:49:44.558Z,8.90
2022-08-09T06:52:10.232Z,9.32
2022-08-09T06:54:39.050Z,8.93
2022-08-09T06:57:08.400Z,8.82
2022-08-09T07:00:50.917Z,10.80
2022-08-09T07:02:22.072Z,9.88
2022-08-09T07:04:56.249Z,11.55
2022-08-09T07:08:00.766Z,9.55
2022-08-09T07:10:24.427Z,8.60
2022-08-09T07:12:57.052Z,9.45
2022-08-09T07:16:38.484Z,9.02
2022-08-09T07:18:11.365Z,9.43
2022-08-09T07:20:41.012Z,9.55
2022-08-09T07:23:18.973Z,13.40
2022-08-09T07:25:47.406Z,11.35
2022-08-09T07:28:19.265Z,10.18
2022-08-09T07:30:54.102Z,10.88
2022-08-09T07:33:21.978Z,8.60
2022-08-09T07:35:54.275Z,9.05
2022-08-09T07:38:23.328Z,7.78
2022-08-09T07:41:08.110Z,7.72
2022-08-09T07:43:49.561Z,8.70
2022-08-09T07:46:19.378Z,7.75
2022-08-09T07:48:46.620Z,6.82
2022-08-09T07:52:06.048Z,7.57
2022-08-09T07:54:12.391Z,5.70
2022-08-09T07:56:49.286Z,6.03
2022-08-09T07:59:25.367Z,6.38
2022-08-09T08:02:02.388Z,5.78
2022-08-09T08:04:32.233Z,6.30
2022-08-09T08:07:15.231Z,5.90
2022-08-09T08:09:55.089Z,4.63
2022-08-09T08:12:43.623Z,6.40
2022-08-09T08:15:17.171Z,5.50
2022-08-09T08:17:54.133Z,6.03
2022-08-09T08:20:27.235Z,5.10
2022-08-09T08:23:01.737Z,6.35
2022-08-09T08:25:44.736Z,6.35
2022-08-09T08:28:15.285Z,4.28
2022-08-09T08:30:44.159Z,5.93
2022-08-09T08:33:12.061Z,5.60
2022-08-09T08:35:58.500Z,4.82
2022-08-09T08:38:30.689Z,5.68
2022-08-09T08:40:58.788Z,6.15
2022-08-09T08:43:27.751Z,6.50
2022-08-09T08:46:10.093Z,4.30
2022-08-09T08:48:51.235Z,6.63
2022-08-09T08:51:21.372Z,5.07
2022-08-09T08:54:03.881Z,6.00
2022-08-09T08:56:35.314Z,5.70
2022-08-09T08:59:19.016Z,4.30
2022-08-09T09:01:52.079Z,5.00
2022-08-09T09:04:26.801Z,5.53
2022-08-09T09:06:57.452Z,5.53
2022-08-09T09:09:58.785Z,5.50
2022-08-09T09:12:17.174Z,4.22
2022-08-09T09:14:45.023Z,5.28
2022-08-09T09:17:13.041Z,5.20
2022-08-09T09:19:44.647Z,5.75
2022-08-09T09:22:26.731Z,6.13
2022-08-09T09:25:08.584Z,4.13
2022-08-09T09:28:06.519Z,5.63
2022-08-09T09:30:47.371Z,4.45
2022-08-09T09:33:16.342Z,4.95
2022-08-09T09:36:01.487Z,4.80
2022-08-09T09:38:44.163Z,3.75
2022-08-09T09:41:28.002Z,3.53
2022-08-09T09:44:12.856Z,5.45
2022-08-09T09:46:52.479Z,3.55
2022-08-09T09:49:49.763Z,3.83
2022-08-09T09:52:16.353Z,3.35
2022-08-09T09:55:24.137Z,3.75
2022-08-09T09:58:16.734Z,5.45
2022-08-09T10:00:55.095Z,4.90
2022-08-09T10:03:57.271Z,3.53
2022-08-09T10:06:42.585Z,3.17
2022-08-09T10:09:22.301Z,4.82
2022-08-09T10:12:11.375Z,3.83
2022-08-09T10:14:48.010Z,3.28
2022-08-09T10:17:51.417Z,4.07
2022-08-09T10:20:32.485Z,4.10
2022-08-09T10:23:23.802Z,2.95
2022-08-09T10:26:06.796Z,3.05
2022-08-09T10:28:40.274Z,4.57
2022-08-09T10:34:11.424Z,2.95
2022-08-09T10:36:50.225Z,3.60
2022-08-09T10:39:19.240Z,2.55
2022-08-09T10:41:47.738Z,3.05
2022-08-09T10:44:18.976Z,2.97
2022-08-09T10:47:03.845Z,3.20
2022-08-09T10:49:51.616Z,2.30
2022-08-09T10:52:33.463Z,3.92
2022-08-09T10:55:49.364Z,4.30
2022-08-09T10:58:37.378Z,3.75
2022-08-09T11:03:02.429Z,4.03
2022-08-09T11:04:19.714Z,2.08
2022-08-09T11:07:03.808Z,4.45
2022-08-09T11:09:47.995Z,2.13
2022-08-09T11:12:17.737Z,3.63
2022-08-09T11:14:51.417Z,3.10
2022-08-09T11:17:19.351Z,3.70
2022-08-09T11:20:23.043Z,2.97
2022-08-09T11:22:55.462Z,4.40
2022-08-09T11:25:45.202Z,2.78
2022-08-09T11:28:34.052Z,3.17
2022-08-09T11:31:39.865Z,3.97
2022-08-09T11:34:17.849Z,2.97
2022-08-09T11:36:45.347Z,1.73
2022-08-09T11:39:12.079Z,4.15
2022-08-09T11:41:40.670Z,4.05
2022-08-09T11:44:08.661Z,1.92
2022-08-09T11:46:57.042Z,5.07
2022-08-09T11:50:52.390Z,1.85
2022-08-09T11:53:21.019Z,3.15
2022-08-09T11:55:51.950Z,2.70
2022-08-09T11:58:19.705Z,2.42
2022-08-09T12:01:00.720Z,2.20
2022-08-09T12:03:54.824Z,2.40
2022-08-09T12:06:24.702Z,3.92
2022-08-09T12:08:55.945Z,2.78
2022-08-09T12:11:26.447Z,3.08
2022-08-09T12:14:06.951Z,3.25
2022-08-09T12:16:40.782Z,3.10
2022-08-09T12:19:09.959Z,2.95
2022-08-09T12:21:50.157Z,2.72
2022-08-09T12:24:24.425Z,3.30
2022-08-09T12:29:00.306Z,3.63
2022-08-09T12:30:02.102Z,4.10
2022-08-09T12:32:41.374Z,4.45
2022-08-09T12:35:10.759Z,3.58
2022-08-09T12:37:44.184Z,2.70
2022-08-09T12:40:18.882Z,2.00
2022-08-09T12:42:50.477Z,2.70
2022-08-09T12:45:34.507Z,1.97
2022-08-09T12:48:20.473Z,2.83
2022-08-09T12:50:57.772Z,1.77
2022-08-09T12:53:36.719Z,2.85
2022-08-09T12:56:42.880Z,2.88
2022-08-09T12:59:06.094Z,3.50
2022-08-09T13:01:32.925Z,2.25
2022-08-09T13:04:07.042Z,2.50
2022-08-09T13:06:54.085Z,3.30
2022-08-09T13:09:21.467Z,3.72
2022-08-09T13:11:50.571Z,2.47
2022-08-09T13:14:40.940Z,2.15
2022-08-09T13:20:08.643Z,3.03
2022-08-09T13:23:00.960Z,1.40
2022-08-09T13:25:20.920Z,2.80
2022-08-09T13:27:55.468Z,3.03
2022-08-09T13:30:49.371Z,3.50
2022-08-09T13:33:24.828Z,2.92
2022-08-09T13:36:38.603Z,3.08
2022-08-09T13:39:01.200Z,2.95
2022-08-09T13:41:59.114Z,2.97
2022-08-09T13:44:21.660Z,2.55
2022-08-09T13:47:19.361Z,3.40
2022-08-09T13:49:39.647Z,3.30
2022-08-09T13:52:23.554Z,2.17
2022-08-09T13:55:00.115Z,3.70
2022-08-09T13:57:40.156Z,3.33
2022-08-09T14:00:12.071Z,2.17
2022-08-09T14:02:42.845Z,2.43
2022-08-09T14:05:56.878Z,2.75
2022-08-09T14:08:13.455Z,2.30
2022-08-09T14:10:49.087Z,2.45
2022-08-09T14:13:21.872Z,2.72
2022-08-09T14:16:06.984Z,2.65
2022-08-09T14:18:36.260Z,2.75
2022-08-09T14:21:03.503Z,2.17
2022-08-09T14:23:39.945Z,2.25
2022-08-09T14:26:20.541Z,1.92
2022-08-09T14:28:47.568Z,2.58
2022-08-09T14:31:14.307Z,2.25
2022-08-09T14:33:42.168Z,3.97
2022-08-09T14:36:19.908Z,2.28
2022-08-09T14:38:52.799Z,1.75
2022-08-09T14:41:26.693Z,2.50
2022-08-09T14:44:02.886Z,4.03
2022-08-09T14:46:55.821Z,2.90
2022-08-09T14:49:18.524Z,1.92
2022-08-09T14:51:50.136Z,2.85
2022-08-09T14:54:16.907Z,1.83
2022-08-09T14:56:57.979Z,3.22
2022-08-09T14:59:27.277Z,2.80
2022-08-09T15:01:55.659Z,3.50
2022-08-09T15:04:23.465Z,3.92
2022-08-09T15:06:51.359Z,2.50
2022-08-09T15:10:03.556Z,2.67
2022-08-09T15:12:08.243Z,3.65
2022-08-09T15:14:38.160Z,1.90
2022-08-09T15:17:09.289Z,3.65
2022-08-09T15:19:37.051Z,2.15
2022-08-09T15:22:23.590Z,2.03
2022-08-09T15:24:59.656Z,2.15
2022-08-09T15:27:30.385Z,4.30
2022-08-09T15:30:56.298Z,3.17
2022-08-09T15:33:01.639Z,3.55
2022-08-09T15:35:40.902Z,3.22
2022-08-09T15:38:12.193Z,2.63
2022-08-09T15:40:43.540Z,2.20
2022-08-09T15:43:13.743Z,2.30
2022-08-09T15:45:52.018Z,2.95
2022-08-09T15:48:30.627Z,3.13
2022-08-09T15:50:59.976Z,2.92
2022-08-09T15:54:04.780Z,3.08
2022-08-09T15:56:29.092Z,3.05
2022-08-09T15:58:58.678Z,2.67
2022-08-09T16:01:26.062Z,2.78
2022-08-09T16:03:52.797Z,2.85
2022-08-09T16:06:34.791Z,4.05
2022-08-09T16:09:05.218Z,4.10
2022-08-09T16:11:33.150Z,2.65
2022-08-09T16:14:03.274Z,2.65
2022-08-09T16:16:34.679Z,2.20
2022-08-09T16:19:04.571Z,2.58
2022-08-09T16:21:31.598Z,2.30
2022-08-09T16:24:02.732Z,3.67
2022-08-09T16:26:34.555Z,2.20
2022-08-09T16:29:14.127Z,2.33
2022-08-09T16:32:19.527Z,5.35
2022-08-09T16:34:54.512Z,2.58
2022-08-09T16:37:50.609Z,3.65
2022-08-09T16:40:08.700Z,2.30
2022-08-09T16:42:36.160Z,1.88
2022-08-09T16:45:05.335Z,2.50
2022-08-09T16:48:40.669Z,2.13
2022-08-09T16:50:31.145Z,3.85
2022-08-09T16:53:01.849Z,3.70
2022-08-09T16:55:31.587Z,2.78
2022-08-09T16:58:16.934Z,2.72
2022-08-09T17:00:44.007Z,4.97
2022-08-09T17:03:21.655Z,2.78
2022-08-09T17:06:03.509Z,5.20
2022-08-09T17:08:43.017Z,3.08
2022-08-09T17:11:40.988Z,4.38
2022-08-09T17:14:25.995Z,3.08
2022-08-09T17:17:00.216Z,2.38
2022-08-09T17:19:47.128Z,4.95
2022-08-09T17:22:24.051Z,2.47
2022-08-09T17:24:55.920Z,3.80
2022-08-09T17:27:32.281Z,4.38
2022-08-09T17:29:58.958Z,4.30
2022-08-09T17:32:26.702Z,2.70
2022-08-09T17:35:11.202Z,4.22
2022-08-09T17:38:12.905Z,3.53
2022-08-09T17:40:32.745Z,4.53
2022-08-09T17:43:10.901Z,4.65
2022-08-09T17:46:03.170Z,2.95
2022-08-09T17:48:38.845Z,3.17
2022-08-09T17:51:18.669Z,5.57
2022-08-09T17:53:52.323Z,3.45
2022-08-09T17:56:35.969Z,4.22
2022-08-09T17:59:09.057Z,5.43
2022-08-09T18:02:03.702Z,5.22
2022-08-09T18:04:25.292Z,4.40
2022-08-09T18:06:55.010Z,4.13
2022-08-09T18:09:23.569Z,3.53
2022-08-09T18:12:14.864Z,3.97
2022-08-09T18:14:49.726Z,3.80
2022-08-09T18:17:18.939Z,5.05
2022-08-09T18:20:59.614Z,5.60
2022-08-09T18:22:50.888Z,4.32
2022-08-09T18:25:18.077Z,3.75
2022-08-09T18:28:03.733Z,3.30
2022-08-09T18:30:38.593Z,4.82
2022-08-09T18:35:59.104Z,3.83
2022-08-09T18:38:27.334Z,4.25
2022-08-09T18:40:55.528Z,4.68
2022-08-09T18:43:23.266Z,3.17
2022-08-09T18:46:46.906Z,4.55
2022-08-09T18:48:36.899Z,3.60
2022-08-09T18:51:03.661Z,3.65
2022-08-09T18:54:01.939Z,3.88
2022-08-09T18:56:27.955Z,2.60
2022-08-09T18:58:56.724Z,3.08
2022-08-09T19:01:24.171Z,3.83
2022-08-09T19:04:01.599Z,3.13
2022-08-09T19:06:33.946Z,4.20
2022-08-09T19:09:02.922Z,4.05
2022-08-09T19:11:37.640Z,3.22
2022-08-09T19:14:06.538Z,5.25
2022-08-09T19:16:37.980Z,3.40
2022-08-09T19:19:21.240Z,3.53
2022-08-09T19:22:04.704Z,3.42
2022-08-09T19:24:39.359Z,3.92
2022-08-09T19:27:20.632Z,3.88
2022-08-09T19:30:23.016Z,3.75
2022-08-09T19:32:36.725Z,3.05
2022-08-09T19:35:04.473Z,3.03
2022-08-09T19:37:40.947Z,3.92
2022-08-09T19:40:19.333Z,3.45
2022-08-09T19:42:49.500Z,4.32
2022-08-09T19:45:16.999Z,4.47
2022-08-09T19:47:44.760Z,3.47
2022-08-09T19:50:50.857Z,3.47
2022-08-09T19:52:59.689Z,5.43
2022-08-09T19:55:53.028Z,4.82
2022-08-09T19:58:17.729Z,3.78
2022-08-09T20:00:56.708Z,3.28
2022-08-09T20:04:09.657Z,4.18
2022-08-09T20:06:24.017Z,4.57
2022-08-09T20:08:56.924Z,4.45
2022-08-09T20:11:25.913Z,4.13
2022-08-09T20:13:54.215Z,3.92
2022-08-09T20:16:33.818Z,6.00
2022-08-09T20:19:49.209Z,3.95
2022-08-09T20:21:56.588Z,5.45
2022-08-09T20:24:29.433Z,4.78
2022-08-09T20:27:01.663Z,4.18
2022-08-09T20:29:36.988Z,6.43
2022-08-09T20:32:31.224Z,6.65
2022-08-09T20:34:54.083Z,4.40
2022-08-09T20:37:21.572Z,3.70
2022-08-09T20:40:14.912Z,3.40
2022-08-09T20:42:38.102Z,5.05
2022-08-09T20:45:59.498Z,4.90
2022-08-09T20:47:53.152Z,5.15
2022-08-09T20:50:47.991Z,4.53
2022-08-09T20:53:35.259Z,5.32
2022-08-09T20:56:00.946Z,5.65
2022-08-09T20:58:32.832Z,5.15
2022-08-09T21:01:13.564Z,3.95
2022-08-09T21:05:48.461Z,4.13
2022-08-09T21:06:27.288Z,3.75
2022-08-09T21:08:58.217Z,4.75
2022-08-09T21:14:12.259Z,5.28
2022-08-09T21:16:38.933Z,4.20
2022-08-09T21:20:18.240Z,5.38
2022-08-09T21:21:56.041Z,5.40
2022-08-09T21:24:28.931Z,4.50
2022-08-09T21:27:10.215Z,6.35
2022-08-09T21:29:48.793Z,5.22
2022-08-09T21:32:18.668Z,4.15
2022-08-09T21:34:49.098Z,4.20
2022-08-09T21:37:18.187Z,4.88
2022-08-09T21:39:45.443Z,4.15
2022-08-09T21:42:17.233Z,5.30
2022-08-09T21:44:44.475Z,4.75
2022-08-09T21:47:14.147Z,4.75
2022-08-09T21:49:45.284Z,5.63
2022-08-09T21:52:17.793Z,4.13
2022-08-09T21:54:59.554Z,6.47
2022-08-09T21:57:38.867Z,4.15
2022-08-09T22:00:25.924Z,4.50
2022-08-09T22:02:58.810Z,4.93
2022-08-09T22:05:35.817Z,5.65
2022-08-09T22:08:14.071Z,4.93
2022-08-09T22:11:48.843Z,5.93
2022-08-09T22:13:35.418Z,8.07
2022-08-09T22:16:07.205Z,4.85
2022-08-09T22:18:34.669Z,5.73
2022-08-09T22:21:01.426Z,5.70
2022-08-09T22:23:35.350Z,6.10
2022-08-09T22:26:34.209Z,4.68
2022-08-09T22:29:06.792Z,6.57
2022-08-09T22:31:35.812Z,4.55
2022-08-09T22:34:02.557Z,5.45
2022-08-09T22:36:29.233Z,5.10
2022-08-09T22:39:20.830Z,5.38
2022-08-09T22:41:59.384Z,4.60
2022-08-09T22:44:32.726Z,5.00
2022-08-09T22:48:10.230Z,4.57
2022-08-09T22:49:47.410Z,4.72
2022-08-09T22:52:19.723Z,4.53
2022-08-09T22:54:47.402Z,4.13
2022-08-09T22:57:14.783Z,5.72
2022-08-09T22:59:58.413Z,4.60
2022-08-09T23:02:27.483Z,4.57
2022-08-09T23:04:55.393Z,5.35
2022-08-09T23:08:22.013Z,4.90
2022-08-09T23:10:31.432Z,5.07
2022-08-09T23:12:58.982Z,5.55
2022-08-09T23:15:26.590Z,4.65
2022-08-09T23:17:53.598Z,5.63
2022-08-09T23:20:20.441Z,4.60
2022-08-09T23:22:47.135Z,4.70
2022-08-09T23:25:13.994Z,4.97
2022-08-09T23:28:09.338Z,3.65
2022-08-09T23:30:28.189Z,6.13
2022-08-09T23:32:54.830Z,5.85
2022-08-09T23:35:21.488Z,5.78
2022-08-09T23:37:48.127Z,6.10
2022-08-09T23:40:14.836Z,4.30
2022-08-09T23:42:41.492Z,5.80
2022-08-09T23:45:09.061Z,6.00
2022-08-09T23:47:36.267Z,6.90
2022-08-09T23:50:03.951Z,6.82
2022-08-09T23:52:30.954Z,4.80
2022-08-09T23:54:58.898Z,5.22
2022-08-09T23:57:25.743Z,5.47
